Flight Track Log - Related Links

Times and Time Zones

All times are in EDT time to prevent confusion due to time zone crossing. See the AWE1262 flight status page for this flight to view local times or setup timezone preferences in your user account.

Time Position Orientation Groundspeed Altitude Reporting Facility
EDT Latitude Longitude Course Direction KTS MPH feet Rate Location/Type
Thu 09:29:17 PM 39.8667 -75.2833 37° Northeast 159 183 900  Level Philadelphia TRACON
Thu 09:29:53 PM 39.8333 -75.3000 201° Southwest 169 194 2,000 2,188 Climbing Philadelphia TRACON
Thu 09:30:53 PM 39.7833 -75.3500 218° Southwest 213 245 4,400 2,700 Climbing Philadelphia TRACON
Thu 09:31:00 PM 39.7979 -74.7727 105° East  Level FlightAware Approximate
Thu 09:31:53 PM 39.7333 -75.3167 153° Southeast 272 313 7,400  Level Philadelphia TRACON
Thu 09:32:00 PM 39.8349 -74.6485 37° Northeast  Level FlightAware Approximate
Thu 09:32:53 PM 39.7333 -75.2167 90° East 305 351 10,300  Level Philadelphia TRACON
Thu 09:33:00 PM 39.9357 -74.5643 37° Northeast  Level FlightAware Approximate
Thu 09:34:00 PM 40.0331 -74.4669 37° Northeast  Level FlightAware Approximate
Thu 09:35:17 PM 39.7672 -74.9300 81° East 356 410 12,000  Level New York Center
Thu 09:36:17 PM 39.7847 -74.7850 81° East 365 420 12,500 1,881 Climbing New York Center
Thu 09:37:15 PM 39.8322 -74.6769 60° Northeast 365 420 15,700 2,723 Climbing New York Center
Thu 09:38:16 PM 39.9139 -74.5978 37° Northeast 343 395 17,900 2,132 Climbing New York Center
Thu 09:39:16 PM 40.0000 -74.5131 37° Northeast 356 410 20,000 1,983 Climbing New York Center
Thu 09:40:17 PM 40.0883 -74.4256 37° Northeast 376 433 21,900 1,900 Climbing New York Center
Thu 09:41:16 PM 40.1828 -74.3328 37° Northeast 415 478 23,800 1,714 Climbing New York Center
Thu 09:42:16 PM 40.2817 -74.2344 37° Northeast 426 490 25,300 1,350 Climbing New York Center
Thu 09:43:16 PM 40.3825 -74.1333 37° Northeast 440 506 26,500 1,038 Climbing New York Center
Thu 09:44:52 PM 40.5517 -73.9886 33° Northeast 474 545 28,000 1,269 Climbing Boston Center
Thu 09:45:52 PM 40.6814 -73.9481 13° North 478 550 29,800 1,400 Climbing Boston Center
Thu 09:46:52 PM 40.8111 -73.9072 13° North 472 543 30,800 950 Climbing Boston Center
Thu 09:47:52 PM 40.9472 -73.8664 13° North 479 551 31,700 1,050 Climbing Boston Center
Thu 09:48:52 PM 41.0789 -73.8225 14° North 479 551 32,900 650 Climbing Boston Center
Thu 09:49:52 PM 41.2167 -73.8033 North 492 566 33,000 50 Climbing Boston Center
Thu 09:50:52 PM 41.3564 -73.8089 358° North 497 572 33,000  Level Boston Center
Thu 09:51:52 PM 41.4939 -73.8147 358° North 497 572 33,000  Level Boston Center
Thu 09:52:52 PM 41.6311 -73.8233 357° North 497 572 33,000  Level Boston Center
Thu 09:53:52 PM 41.7708 -73.8236 360° North 497 572 33,000  Level Boston Center
Thu 09:54:52 PM 41.9189 -73.8211 North 487 560 33,000 -550 Level Boston Center
Thu 09:55:52 PM 42.0567 -73.7989 North 492 566 31,900 -1,550 Descending Boston Center
Thu 09:56:52 PM 42.1989 -73.7517 14° North 505 581 29,900 -2,000 Descending Boston Center
Thu 09:57:52 PM 42.3147 -73.6503 33° Northeast 536 617 27,900 -2,000 Descending Boston Center
Thu 09:58:52 PM 42.3789 -73.5025 60° Northeast 460 529 25,900 -2,000 Descending Boston Center
Thu 09:59:52 PM 42.4344 -73.3403 65° Northeast 453 521 23,900 -2,000 Descending Boston Center
Thu 10:01:00 PM 42.4336 -73.1849 90° East  Level FlightAware Approximate
Thu 10:01:52 PM 42.5364 -73.0375 90° East 439 505 19,900  Level Boston Center
Thu 10:02:52 PM 42.5850 -72.8997 64° Northeast 414 476 19,000 -900 Descending Boston Center
Thu 10:03:52 PM 42.6292 -72.7758 64° Northeast 409 471 18,100 -1,250 Descending Boston Center
Thu 10:04:52 PM 42.6775 -72.6378 64° Northeast 404 465 16,500 -1,500 Descending Boston Center
Thu 10:05:52 PM 42.7233 -72.5050 65° Northeast 397 457 15,100 -1,400 Descending Boston Center
Thu 10:06:52 PM 42.7672 -72.3750 65° Northeast 381 438 13,700 -1,450 Descending Boston Center
Thu 10:07:52 PM 42.7983 -72.2364 73° East 364 419 12,200 -1,450 Descending Boston Center
Thu 10:08:52 PM 42.8042 -72.1119 86° East 338 389 10,800 -1,300 Descending Boston Center
Thu 10:09:52 PM 42.7997 -71.9986 93° East 311 358 9,600 -1,400 Descending Boston Center
Thu 10:10:52 PM 42.7950 -71.8911 93° East 289 333 8,000 -1,600 Descending Boston Center
Thu 10:11:52 PM 42.7903 -71.7867 93° East 279 321 6,400 -1,500 Descending Boston Center
Thu 10:12:52 PM 42.7856 -71.6819 93° East 274 315 5,000 -1,250 Descending Boston Center
Thu 10:13:52 PM 42.7828 -71.5831 92° East 269 310 3,900 -1,200 Descending Boston Center
Thu 10:14:52 PM 42.7986 -71.4894 77° East 255 293 2,600 -700 Descending Boston Center
Thu 10:15:52 PM 42.8064 -71.4186 81° East 228 262 2,500 -300 Descending Boston Center
Thu 10:16:52 PM 42.8414 -71.3783 40° Northeast 155 178 2,000 -600 Descending Boston Center
Thu 10:17:52 PM 42.8708 -71.4003 331° Northwest 116 133 1,300 -700 Descending Boston Center
Thu 10:18:52 PM 42.9064 -71.4197 338° Northwest 121 139 600 -450 Descending Boston Center
Thu 10:19:52 PM 42.9378 -71.4389 336° Northwest 121 139 400 9,200 Descending Boston Center
Thu 10:20:52 PM 42.9694 -71.4611 333° Northwest 121 139 19,000 9,300 Climbing Boston Center
Thu 10:21:52 PM 43.0008 -71.4806 336° Northwest 121 139 19,000  Level Boston Center
Thu 10:23:00 PM 42.9328 -71.4358 164° South  Level Estimated

Login

Don't have an account? Register now (free) for customized features, flight alerts, and more!